Boulder Creek, CA

3:27 PM PDT on October 22, 2014 (GMT -0700)
Cresta Vista | Change Station
CLOSE
Current Station
Personal Weather Station
Location: Boulder Creek, CA
Elevation: 695 ft
Nearby Weather Stations

Elev 695 ft 37.14 °N, 122.13 °W | Updated 8 seconds ago

Clear
Clear
76.8 °F
Feels Like 78 °F
N
2.0
Wind Variable Wind from WNW
Gusts 5.0 mph

Today
High -- | Low -- °F
--% Chance of Precip.
Yesterday
High -- | Low -- °F
Precip. -- in
7:23 AM 6:22 PM
Waning Crescent, 1% visible
Pressure 30.02 in
Visibility 10.0 miles
Clouds Few 7500 ft
Scattered Clouds 13000 ft
Mostly Cloudy 20000 ft
Heat Index 78 °F
Dew Point 50 °F
Humidity 39%
Rainfall 0.00 in
Snow Depth Not available.
UV 0.0 out of 12
Pollen 2.40 out of 12
Ozone Good
PM2.5 Good
Flu Activity Sporadic
METAR KSJC 222153Z 29008KT 10SM FEW075 SCT130 BKN200 22/07 A3002 RMK AO2 SLP166 T02170067

More Conditions Fewer Conditions

Pressure 30.02 in
Visibility 10.0 miles
Clouds Few 7500 ft
Scattered Clouds 13000 ft
Mostly Cloudy 20000 ft
Heat Index 78 °F
Dew Point 50 °F
Humidity 39%
Rainfall 0.00 in
Snow Depth Not available.
UV 0.0 out of 12
Pollen 2.40 out of 12
Ozone Good
PM2.5 Good
Flu Activity Sporadic
METAR KSJC 222153Z 29008KT 10SM FEW075 SCT130 BKN200 22/07 A3002 RMK AO2 SLP166 T02170067

More Conditions Fewer Conditions

10-Day Weather Forecast

Almanac

Astronomy

Oct. 22, 2014 Rise Set
Actual Time 7:23 AM PDT 6:22 PM PDT
Civil Twilight 6:56 AM PDT 6:48 PM PDT
Nautical Twilight 6:26 AM PDT 7:19 PM PDT
Astronomical Twilight 5:55 AM PDT 7:49 PM PDT
Moon 6:11 AM PDT 5:51 PM PDT
Length of Visible Light 11h 52m
Length of Day
10h 59m
Tomorrow will be 2m 12s shorter.
Waning Crescent, 1% of the Moon is Illuminated
Today
Waning Crescent
Oct 23
New
Oct 30
First Quarter
Nov 6
Full
Nov 14
Last Quarter

Today's Extremes

State Highs State Lows

Community

WunderPhotos

Upload Photos

1,764,064 photos uploaded!

WunderBlogs® & News

Nearby

Air Quality

  Air Quality AQ Index Pollutant
Yesterday Good
OZONE
Yesterday Good
PM2.5
Current Good
PM2.5
Current Good
OZONE
Wednesday Good
PM2.5
Thursday Good
PM2.5
Friday Good
PM2.5
Saturday Good
PM2.5
Sunday Good
PM2.5
Monday Good
PM2.5

Snow Depth

Station Depth Elevation
Summit Meadow 0 in 9122 ft
Rubicon #2 0 in 7500 ft
Monitor Pass 0 in 8350 ft
Adin Mountain 0 in 6200 ft

Earthquake Activity

City Distance Mag. Time & Date
No recent earthquake activity has been reported nearby.
Minimum magnitude displayed is 2.5.

Coastal Water Temperatures

Place Temperature
Monterey, CA 63.0 °F
Redwood City, CA 66.9 °F

Nearby Weather Stations